createdAt,value
2019-05-09T00:00:33.524Z,1.63
2019-05-09T00:03:03.458Z,1.60
2019-05-09T00:05:33.460Z,1.67
2019-05-09T00:08:03.511Z,1.57
2019-05-09T00:10:39.416Z,1.53
2019-05-09T00:13:03.347Z,1.63
2019-05-09T00:15:33.257Z,1.63
2019-05-09T00:18:03.795Z,1.40
2019-05-09T00:20:43.597Z,1.50
2019-05-09T00:23:13.584Z,1.50
2019-05-09T00:25:43.293Z,1.60
2019-05-09T00:28:13.540Z,1.80
2019-05-09T00:30:56.035Z,1.87
2019-05-09T00:33:34.067Z,1.83
2019-05-09T00:36:04.231Z,1.73
2019-05-09T00:38:36.281Z,1.67
2019-05-09T00:41:04.740Z,1.60
2019-05-09T00:43:34.214Z,1.80
2019-05-09T00:46:04.559Z,1.60
2019-05-09T00:48:38.281Z,1.73
2019-05-09T00:51:06.745Z,1.50
2019-05-09T00:53:35.188Z,1.40
2019-05-09T00:56:04.308Z,1.43
2019-05-09T00:58:33.597Z,1.70
2019-05-09T01:01:04.265Z,1.77
2019-05-09T01:03:33.949Z,1.40
2019-05-09T01:06:04.073Z,1.20
2019-05-09T01:08:33.648Z,1.80
2019-05-09T01:11:11.334Z,1.30
2019-05-09T01:13:34.166Z,1.40
2019-05-09T01:16:04.554Z,1.30
2019-05-09T01:18:34.009Z,1.47
2019-05-09T01:21:03.929Z,1.47
2019-05-09T01:23:34.360Z,1.60
2019-05-09T01:26:03.899Z,1.40
2019-05-09T01:28:33.928Z,1.80
2019-05-09T01:31:04.082Z,1.63
2019-05-09T01:33:53.956Z,1.50
2019-05-09T01:36:23.488Z,1.60
2019-05-09T01:38:53.947Z,1.40
2019-05-09T01:41:30.177Z,1.77
2019-05-09T01:43:53.625Z,1.80
2019-05-09T01:46:23.574Z,1.63
2019-05-09T01:48:53.984Z,1.70
2019-05-09T01:51:23.348Z,1.60
2019-05-09T01:53:53.754Z,1.50
2019-05-09T01:56:23.465Z,1.27
2019-05-09T01:58:53.886Z,1.30
2019-05-09T02:01:24.029Z,1.53
2019-05-09T02:03:53.645Z,1.50
2019-05-09T02:06:24.491Z,1.57
2019-05-09T02:08:54.567Z,1.60
2019-05-09T02:11:23.901Z,1.27
2019-05-09T02:13:53.553Z,1.40
2019-05-09T02:16:23.883Z,1.30
2019-05-09T02:18:53.967Z,1.30
2019-05-09T02:21:24.032Z,1.40
2019-05-09T02:23:53.680Z,1.40
2019-05-09T02:26:24.029Z,1.20
2019-05-09T02:28:53.849Z,1.43
2019-05-09T02:31:24.541Z,1.23
2019-05-09T02:33:54.145Z,1.43
2019-05-09T02:36:23.038Z,1.30
2019-05-09T02:38:51.573Z,1.60
2019-05-09T02:41:20.208Z,1.10
2019-05-09T02:43:49.835Z,1.10
2019-05-09T02:46:20.480Z,1.50
2019-05-09T02:48:49.637Z,1.13
2019-05-09T02:51:18.833Z,1.40
2019-05-09T02:53:48.533Z,1.30
2019-05-09T02:56:18.916Z,1.20
2019-05-09T02:58:49.122Z,1.17
2019-05-09T03:01:22.518Z,1.40
2019-05-09T03:03:50.961Z,1.17
2019-05-09T03:06:19.827Z,1.33
2019-05-09T03:08:49.283Z,1.20
2019-05-09T03:11:18.779Z,2.00
2019-05-09T03:13:49.630Z,1.10
2019-05-09T03:16:19.087Z,1.40
2019-05-09T03:18:49.389Z,1.37
2019-05-09T03:21:19.808Z,1.00
2019-05-09T03:23:49.024Z,1.10
2019-05-09T03:26:19.630Z,1.30
2019-05-09T03:28:49.913Z,1.30
2019-05-09T03:31:19.998Z,1.30
2019-05-09T03:33:50.145Z,1.10
2019-05-09T03:36:19.029Z,1.20
2019-05-09T03:38:47.636Z,1.40
2019-05-09T03:41:17.687Z,1.30
2019-05-09T03:43:48.240Z,1.20
2019-05-09T03:46:20.921Z,1.10
2019-05-09T03:48:51.027Z,1.53
2019-05-09T03:51:19.477Z,1.57
2019-05-09T03:53:48.508Z,1.60
2019-05-09T03:56:21.812Z,1.60
2019-05-09T03:58:50.271Z,1.33
2019-05-09T04:01:18.712Z,1.40
2019-05-09T04:03:48.128Z,1.50
2019-05-09T04:06:18.471Z,1.50
2019-05-09T04:08:48.145Z,1.47
2019-05-09T04:11:18.463Z,1.60
2019-05-09T04:13:48.852Z,1.80
2019-05-09T04:16:19.173Z,1.90
2019-05-09T04:18:48.877Z,1.77
2019-05-09T04:21:17.597Z,2.10
2019-05-09T04:23:48.051Z,2.10
2019-05-09T04:26:34.488Z,2.10
2019-05-09T04:29:02.948Z,2.10
2019-05-09T04:31:31.460Z,2.23
2019-05-09T04:33:59.914Z,2.10
2019-05-09T04:36:40.399Z,1.50
2019-05-09T04:39:12.871Z,1.63
2019-05-09T04:41:41.767Z,2.00
2019-05-09T04:44:18.325Z,1.80
2019-05-09T04:46:48.071Z,1.60
2019-05-09T04:49:18.495Z,1.30
2019-05-09T04:51:47.913Z,1.33
2019-05-09T04:54:17.723Z,1.20
2019-05-09T04:56:47.468Z,1.20
2019-05-09T04:59:17.856Z,1.10
2019-05-09T05:01:48.001Z,1.40
2019-05-09T05:04:18.058Z,1.27
2019-05-09T05:06:47.747Z,1.40
2019-05-09T05:09:20.557Z,1.47
2019-05-09T05:11:49.095Z,1.40
2019-05-09T05:14:22.516Z,1.63
2019-05-09T05:16:54.071Z,1.50
2019-05-09T05:19:23.568Z,1.40
2019-05-09T05:21:52.021Z,1.57
2019-05-09T05:24:22.149Z,1.23
2019-05-09T05:26:50.627Z,1.50
2019-05-09T05:29:19.156Z,1.20
2019-05-09T05:31:51.436Z,1.57
2019-05-09T05:34:37.803Z,1.40
2019-05-09T05:37:07.538Z,1.70
2019-05-09T05:39:37.553Z,1.30
2019-05-09T05:42:08.095Z,1.50
2019-05-09T05:44:38.399Z,1.57
2019-05-09T05:47:08.228Z,1.43
2019-05-09T05:49:38.511Z,1.57
2019-05-09T05:52:08.053Z,1.50
2019-05-09T05:54:37.875Z,1.97
2019-05-09T05:57:08.397Z,1.70
2019-05-09T05:59:40.607Z,1.77
2019-05-09T06:02:08.642Z,1.87
2019-05-09T06:04:38.083Z,1.77
2019-05-09T06:07:07.937Z,2.00
2019-05-09T06:09:38.006Z,1.70
2019-05-09T06:12:08.320Z,1.43
2019-05-09T06:14:37.819Z,1.50
2019-05-09T06:17:07.941Z,1.60
2019-05-09T06:19:37.849Z,1.40
2019-05-09T06:22:08.244Z,1.87
2019-05-09T06:24:38.748Z,1.60
2019-05-09T06:27:10.170Z,1.63
2019-05-09T06:29:38.661Z,1.40
2019-05-09T06:32:08.032Z,1.60
2019-05-09T06:34:41.664Z,1.50
2019-05-09T06:37:09.015Z,1.70
2019-05-09T06:39:38.073Z,1.40
2019-05-09T06:42:08.864Z,1.80
2019-05-09T06:44:44.388Z,1.73
2019-05-09T06:47:18.521Z,1.40
2019-05-09T06:49:51.516Z,1.40
2019-05-09T06:52:20.016Z,1.33
2019-05-09T06:54:48.713Z,1.60
2019-05-09T06:57:18.689Z,1.40
2019-05-09T06:59:49.108Z,1.43
2019-05-09T07:02:28.394Z,1.67
2019-05-09T07:04:58.575Z,1.60
2019-05-09T07:07:28.750Z,1.10
2019-05-09T07:09:58.872Z,1.40
2019-05-09T07:12:27.502Z,1.50
2019-05-09T07:14:58.152Z,1.40
2019-05-09T07:17:31.865Z,2.03
2019-05-09T07:19:58.749Z,1.20
2019-05-09T07:22:40.280Z,1.43
2019-05-09T07:25:27.609Z,1.30
2019-05-09T07:27:58.490Z,1.20
2019-05-09T07:30:29.035Z,1.27
2019-05-09T07:33:18.730Z,1.20
2019-05-09T07:35:47.677Z,1.20
2019-05-09T07:38:18.125Z,1.40
2019-05-09T07:40:47.757Z,2.07
2019-05-09T07:43:18.002Z,4.13
2019-05-09T07:46:08.834Z,3.03
2019-05-09T07:48:57.772Z,1.37
2019-05-09T07:51:27.521Z,1.23
2019-05-09T07:53:58.692Z,1.07
2019-05-09T07:56:28.424Z,1.30
2019-05-09T07:58:58.284Z,1.17
2019-05-09T08:01:28.067Z,1.10
2019-05-09T08:03:58.361Z,1.47
2019-05-09T08:06:28.737Z,1.60
2019-05-09T08:08:58.085Z,1.40
2019-05-09T08:11:28.451Z,1.43
2019-05-09T08:13:57.598Z,1.60
2019-05-09T08:16:27.905Z,1.73
2019-05-09T08:18:57.811Z,1.40
2019-05-09T08:21:27.688Z,1.43
2019-05-09T08:23:57.905Z,1.50
2019-05-09T08:26:29.705Z,1.60
2019-05-09T08:28:58.413Z,1.70
2019-05-09T08:31:28.075Z,1.50
2019-05-09T08:33:59.417Z,1.60
2019-05-09T08:36:28.210Z,1.50
2019-05-09T08:38:58.667Z,1.77
2019-05-09T08:41:29.054Z,1.40
2019-05-09T08:43:57.669Z,1.30
2019-05-09T08:46:28.458Z,1.70
2019-05-09T08:48:57.551Z,1.20
2019-05-09T08:51:47.931Z,1.03
2019-05-09T08:54:09.318Z,1.30
2019-05-09T08:56:38.770Z,1.10
2019-05-09T08:59:08.245Z,1.10
2019-05-09T09:01:53.937Z,1.30
2019-05-09T09:04:08.090Z,1.10
2019-05-09T09:06:37.958Z,1.30
2019-05-09T09:09:08.075Z,1.00
2019-05-09T09:11:38.528Z,1.10
2019-05-09T09:14:07.854Z,1.13
2019-05-09T09:16:37.893Z,1.30
2019-05-09T09:19:08.915Z,1.20
2019-05-09T09:21:38.794Z,1.07
2019-05-09T09:24:08.737Z,1.30
2019-05-09T09:26:38.206Z,1.00
2019-05-09T09:29:28.232Z,1.37
2019-05-09T09:31:57.605Z,1.13
2019-05-09T09:34:27.744Z,1.40
2019-05-09T09:37:01.619Z,1.40
2019-05-09T09:39:27.575Z,1.30
2019-05-09T09:41:58.468Z,1.27
2019-05-09T09:44:28.513Z,1.70
2019-05-09T09:46:58.112Z,1.13
2019-05-09T09:49:29.291Z,1.73
2019-05-09T09:51:58.152Z,1.20
2019-05-09T09:54:28.098Z,1.10
2019-05-09T09:56:58.482Z,1.20
2019-05-09T09:59:36.141Z,1.10
2019-05-09T10:02:09.980Z,1.30
2019-05-09T10:04:37.530Z,1.10
2019-05-09T10:07:08.841Z,0.87
2019-05-09T10:09:36.805Z,0.90
2019-05-09T10:12:05.307Z,1.00
2019-05-09T10:14:38.075Z,0.80
2019-05-09T10:17:24.157Z,0.90
2019-05-09T10:19:54.214Z,0.97
2019-05-09T10:22:25.798Z,1.30
2019-05-09T10:24:54.423Z,1.10
2019-05-09T10:27:22.916Z,0.80
2019-05-09T10:29:51.328Z,0.90
2019-05-09T10:32:19.497Z,1.00
2019-05-09T10:34:49.030Z,0.80
2019-05-09T10:37:18.529Z,0.70
2019-05-09T10:39:49.076Z,0.80
2019-05-09T10:42:31.260Z,0.97
2019-05-09T10:45:04.303Z,0.60
2019-05-09T10:47:34.561Z,1.00
2019-05-09T10:50:03.146Z,0.90
2019-05-09T10:52:31.552Z,0.70
2019-05-09T10:54:59.999Z,0.50
2019-05-09T10:57:31.620Z,0.87
2019-05-09T10:59:58.681Z,0.80
2019-05-09T11:02:27.929Z,0.67
2019-05-09T11:04:57.600Z,1.07
2019-05-09T11:07:28.731Z,0.80
2019-05-09T11:09:58.787Z,0.63
2019-05-09T11:12:27.568Z,0.73
2019-05-09T11:14:59.083Z,1.07
2019-05-09T11:17:28.395Z,0.90
2019-05-09T11:19:58.473Z,0.83
2019-05-09T11:22:28.914Z,0.90
2019-05-09T11:24:58.006Z,0.90
2019-05-09T11:27:28.886Z,1.00
2019-05-09T11:29:57.866Z,0.80
2019-05-09T11:32:27.758Z,0.93
2019-05-09T11:35:17.661Z,1.00
2019-05-09T11:37:48.079Z,1.00
2019-05-09T11:40:16.690Z,1.13
2019-05-09T11:42:45.129Z,1.00
2019-05-09T11:45:13.775Z,0.73
2019-05-09T11:47:46.292Z,0.97
2019-05-09T11:50:12.193Z,1.23
2019-05-09T11:52:40.302Z,1.13
2019-05-09T11:55:27.444Z,1.20
2019-05-09T11:57:38.643Z,0.90
2019-05-09T12:00:26.493Z,1.10
2019-05-09T12:02:54.608Z,1.00
2019-05-09T12:05:22.736Z,1.30
2019-05-09T12:08:00.611Z,1.10
2019-05-09T12:10:28.814Z,1.47
2019-05-09T12:12:57.894Z,0.90
2019-05-09T12:15:28.838Z,1.23
2019-05-09T12:18:01.593Z,1.20
2019-05-09T12:20:27.712Z,1.03
2019-05-09T12:22:58.377Z,1.30
2019-05-09T12:25:28.346Z,1.10
2019-05-09T12:27:58.430Z,1.00
2019-05-09T12:30:28.488Z,0.93
2019-05-09T12:32:58.940Z,1.00
2019-05-09T12:35:26.873Z,0.83
2019-05-09T12:37:55.307Z,1.27
2019-05-09T12:40:23.724Z,1.03
2019-05-09T12:42:52.218Z,0.90
2019-05-09T12:45:20.892Z,1.10
2019-05-09T12:48:05.208Z,1.10
2019-05-09T12:50:19.903Z,1.00
2019-05-09T12:52:48.731Z,0.90
2019-05-09T12:55:17.946Z,1.23
2019-05-09T12:57:48.872Z,1.23
2019-05-09T13:00:18.896Z,1.03
2019-05-09T13:02:48.376Z,1.20
2019-05-09T13:05:18.173Z,1.40
2019-05-09T13:07:48.042Z,1.00
2019-05-09T13:10:19.422Z,1.20
2019-05-09T13:12:48.431Z,1.93
2019-05-09T13:15:20.738Z,2.17
2019-05-09T13:17:50.734Z,1.57
2019-05-09T13:20:19.167Z,1.27
2019-05-09T13:22:47.813Z,1.60
2019-05-09T13:25:18.895Z,1.43
2019-05-09T13:27:47.851Z,1.27
2019-05-09T13:30:19.138Z,1.73
2019-05-09T13:32:48.538Z,1.53
2019-05-09T13:35:19.925Z,1.50
2019-05-09T13:37:49.070Z,1.57
2019-05-09T13:40:18.849Z,1.27
2019-05-09T13:42:49.079Z,1.50
2019-05-09T13:45:18.644Z,1.30
2019-05-09T13:47:48.507Z,1.00
2019-05-09T13:50:18.603Z,1.00
2019-05-09T13:52:47.998Z,0.90
2019-05-09T13:55:17.832Z,1.00
2019-05-09T13:57:48.579Z,0.80
2019-05-09T14:00:18.616Z,1.00
2019-05-09T14:03:08.122Z,0.97
2019-05-09T14:05:37.139Z,1.00
2019-05-09T14:08:09.076Z,0.93
2019-05-09T14:10:38.736Z,1.00
2019-05-09T14:13:12.938Z,1.30
2019-05-09T14:15:37.140Z,1.17
2019-05-09T14:18:08.134Z,1.40
2019-05-09T14:20:37.790Z,1.73
2019-05-09T14:23:11.149Z,1.00
2019-05-09T14:25:38.069Z,1.00
2019-05-09T14:28:08.545Z,1.10
2019-05-09T14:30:38.812Z,1.17
2019-05-09T14:33:08.209Z,1.03
2019-05-09T14:35:38.710Z,1.10
2019-05-09T14:38:08.886Z,1.10
2019-05-09T14:40:38.645Z,0.87
2019-05-09T14:43:09.597Z,1.23
2019-05-09T14:45:38.146Z,1.10
2019-05-09T14:48:08.007Z,1.40
2019-05-09T14:50:38.216Z,0.97
2019-05-09T14:53:08.626Z,0.90
2019-05-09T14:55:39.172Z,1.20
2019-05-09T14:58:07.889Z,1.10
2019-05-09T15:00:38.636Z,1.33
2019-05-09T15:03:08.207Z,1.07
2019-05-09T15:05:37.905Z,0.80
2019-05-09T15:08:06.562Z,0.90
2019-05-09T15:10:54.663Z,0.80
2019-05-09T15:13:23.579Z,1.17
2019-05-09T15:15:52.075Z,1.00
2019-05-09T15:18:20.554Z,0.90
2019-05-09T15:20:49.045Z,0.70
2019-05-09T15:23:19.623Z,0.80
2019-05-09T15:25:48.147Z,0.90
2019-05-09T15:28:35.690Z,0.70
2019-05-09T15:31:04.518Z,0.73
2019-05-09T15:33:32.958Z,0.90
2019-05-09T15:36:01.790Z,0.90
2019-05-09T15:38:30.216Z,0.60
2019-05-09T15:40:58.723Z,0.77
2019-05-09T15:43:27.194Z,0.80
2019-05-09T15:46:03.355Z,0.70
2019-05-09T15:48:32.845Z,0.70
2019-05-09T15:51:01.271Z,0.63
2019-05-09T15:53:29.761Z,0.60
2019-05-09T15:55:58.881Z,0.70
2019-05-09T15:58:28.724Z,0.60
2019-05-09T16:00:58.910Z,0.73
2019-05-09T16:03:27.994Z,0.60
2019-05-09T16:05:58.418Z,0.60
2019-05-09T16:08:28.804Z,0.80
2019-05-09T16:10:58.080Z,1.00
2019-05-09T16:13:28.526Z,0.80
2019-05-09T16:15:57.546Z,0.60
2019-05-09T16:18:25.849Z,0.90
2019-05-09T16:20:54.260Z,0.90
2019-05-09T16:23:23.163Z,0.70
2019-05-09T16:25:52.718Z,0.60
2019-05-09T16:28:21.614Z,0.80
2019-05-09T16:30:50.043Z,0.87
2019-05-09T16:33:18.563Z,0.70
2019-05-09T16:35:48.478Z,0.73
2019-05-09T16:38:18.537Z,0.80
2019-05-09T16:40:47.927Z,0.90
2019-05-09T16:43:17.823Z,0.80
2019-05-09T16:45:47.646Z,1.07
2019-05-09T16:48:17.872Z,0.80
2019-05-09T16:50:59.327Z,0.90
2019-05-09T16:53:18.604Z,0.83
2019-05-09T16:55:46.980Z,0.80
2019-05-09T16:58:18.324Z,0.80
2019-05-09T17:00:48.173Z,0.93
2019-05-09T17:03:17.783Z,0.70
2019-05-09T17:05:46.590Z,0.97
2019-05-09T17:08:17.599Z,0.97
2019-05-09T17:10:48.384Z,1.37
2019-05-09T17:13:18.333Z,0.90
2019-05-09T17:15:46.569Z,0.90
2019-05-09T17:18:15.051Z,1.00
2019-05-09T17:20:50.869Z,0.80
2019-05-09T17:23:20.677Z,0.80
2019-05-09T17:25:49.207Z,0.90
2019-05-09T17:28:17.939Z,0.87
2019-05-09T17:30:49.026Z,0.80
2019-05-09T17:33:16.954Z,1.00
2019-05-09T17:35:45.051Z,0.80
2019-05-09T17:38:14.133Z,0.80
2019-05-09T17:40:42.807Z,0.90
2019-05-09T17:43:11.317Z,0.77
2019-05-09T17:45:42.201Z,1.20
2019-05-09T17:48:10.295Z,0.80
2019-05-09T17:50:39.593Z,0.90
2019-05-09T17:53:08.586Z,0.95
2019-05-09T17:55:38.070Z,0.87
2019-05-09T17:58:08.746Z,0.83
2019-05-09T18:00:37.958Z,1.10
2019-05-09T18:03:06.774Z,0.90
2019-05-09T18:05:35.980Z,1.00
2019-05-09T18:08:05.257Z,0.90
2019-05-09T18:10:34.408Z,1.40
2019-05-09T18:13:02.900Z,0.83
2019-05-09T18:15:31.418Z,1.00
2019-05-09T18:17:59.574Z,1.03
2019-05-09T18:20:28.784Z,1.00
2019-05-09T18:22:58.640Z,1.03
2019-05-09T18:25:28.100Z,1.27
2019-05-09T18:27:57.544Z,1.17
2019-05-09T18:30:27.889Z,1.10
2019-05-09T18:33:07.715Z,1.30
2019-05-09T18:35:38.040Z,1.43
2019-05-09T18:38:07.975Z,1.60
2019-05-09T18:40:36.549Z,1.87
2019-05-09T18:43:05.042Z,1.30
2019-05-09T18:45:33.473Z,1.27
2019-05-09T18:48:01.898Z,1.43
2019-05-09T18:50:31.071Z,1.40
2019-05-09T18:52:59.585Z,1.10
2019-05-09T18:55:27.756Z,1.30
2019-05-09T18:57:57.548Z,1.50
2019-05-09T19:00:26.093Z,1.40
2019-05-09T19:02:54.532Z,1.30
2019-05-09T19:05:23.298Z,1.20
2019-05-09T19:07:51.990Z,1.30
2019-05-09T19:10:20.796Z,1.03
2019-05-09T19:12:49.017Z,1.17
2019-05-09T19:15:22.346Z,1.40
2019-05-09T19:18:09.463Z,1.13
2019-05-09T19:20:57.433Z,1.50
2019-05-09T19:23:26.149Z,1.37
2019-05-09T19:25:54.586Z,1.10
2019-05-09T19:28:24.332Z,1.40
2019-05-09T19:30:53.025Z,1.57
2019-05-09T19:33:21.471Z,1.13
2019-05-09T19:35:49.927Z,1.10
2019-05-09T19:38:18.406Z,1.30
2019-05-09T19:40:46.833Z,1.07
2019-05-09T19:43:16.038Z,1.10
2019-05-09T19:45:45.298Z,1.20
2019-05-09T19:48:13.712Z,1.20
2019-05-09T19:50:42.156Z,1.30
2019-05-09T19:53:11.033Z,1.30
2019-05-09T19:55:40.050Z,1.67
2019-05-09T19:58:08.668Z,1.50
2019-05-09T20:00:38.246Z,1.20
2019-05-09T20:03:07.576Z,1.50
2019-05-09T20:05:36.126Z,1.20
2019-05-09T20:08:04.621Z,1.30
2019-05-09T20:10:40.421Z,1.40
2019-05-09T20:13:10.630Z,1.17
2019-05-09T20:15:38.785Z,1.30
2019-05-09T20:18:08.774Z,1.43
2019-05-09T20:20:37.270Z,1.13
2019-05-09T20:23:06.699Z,1.20
2019-05-09T20:25:36.590Z,1.27
2019-05-09T20:28:05.705Z,1.40
2019-05-09T20:30:34.512Z,1.73
2019-05-09T20:33:04.449Z,1.80
2019-05-09T20:35:32.869Z,1.60
2019-05-09T20:38:01.190Z,1.67
2019-05-09T20:40:29.826Z,1.50
2019-05-09T20:42:58.443Z,1.70
2019-05-09T20:45:27.294Z,1.67
2019-05-09T20:47:56.352Z,1.80
2019-05-09T20:50:25.741Z,1.70
2019-05-09T20:53:13.482Z,1.40
2019-05-09T20:55:42.090Z,1.40
2019-05-09T20:58:10.701Z,1.43
2019-05-09T21:00:58.317Z,1.67
2019-05-09T21:03:27.273Z,1.50
2019-05-09T21:06:15.273Z,1.60
2019-05-09T21:08:44.232Z,1.50
2019-05-09T21:11:12.889Z,1.60
2019-05-09T21:13:48.265Z,1.60
2019-05-09T21:16:11.821Z,1.77
2019-05-09T21:18:40.228Z,1.87
2019-05-09T21:21:08.980Z,1.20
2019-05-09T21:23:37.599Z,1.50
2019-05-09T21:26:06.355Z,1.20
2019-05-09T21:28:35.025Z,1.07
2019-05-09T21:31:03.629Z,0.93
2019-05-09T21:33:32.321Z,1.00
2019-05-09T21:36:20.973Z,0.90
2019-05-09T21:38:49.446Z,0.90
2019-05-09T21:41:18.497Z,1.00
2019-05-09T21:43:47.236Z,1.20
2019-05-09T21:46:35.543Z,1.13
2019-05-09T21:49:04.090Z,1.13
2019-05-09T21:51:32.729Z,1.00
2019-05-09T21:54:01.459Z,0.93
2019-05-09T21:56:30.238Z,1.03
2019-05-09T21:59:00.032Z,1.17
2019-05-09T22:01:28.926Z,1.10
2019-05-09T22:03:57.044Z,1.20
2019-05-09T22:06:25.117Z,1.23
2019-05-09T22:08:53.546Z,1.23
2019-05-09T22:11:22.236Z,1.13
2019-05-09T22:13:50.666Z,1.27
2019-05-09T22:16:19.158Z,1.07
2019-05-09T22:18:48.244Z,1.00
2019-05-09T22:21:22.493Z,1.10
2019-05-09T22:23:56.386Z,1.20
2019-05-09T22:26:21.941Z,1.57
2019-05-09T22:28:50.164Z,1.17
2019-05-09T22:31:18.261Z,1.30
2019-05-09T22:33:46.711Z,1.20
2019-05-09T22:36:16.040Z,1.10
2019-05-09T22:38:46.661Z,1.53
2019-05-09T22:41:16.106Z,1.43
2019-05-09T22:43:44.707Z,1.70
2019-05-09T22:46:13.674Z,1.40
2019-05-09T22:48:42.121Z,1.30
2019-05-09T22:51:11.064Z,1.50
2019-05-09T22:53:39.793Z,1.27
2019-05-09T22:56:08.640Z,1.40
2019-05-09T22:58:37.080Z,1.33
2019-05-09T23:01:05.510Z,1.67
2019-05-09T23:03:35.334Z,1.10
2019-05-09T23:06:03.774Z,1.30
2019-05-09T23:08:32.261Z,1.30
2019-05-09T23:11:00.424Z,1.57
2019-05-09T23:13:28.689Z,1.40
2019-05-09T23:15:57.111Z,1.70
2019-05-09T23:18:25.188Z,1.57
2019-05-09T23:20:55.017Z,1.40
2019-05-09T23:23:26.087Z,1.60
2019-05-09T23:25:54.183Z,1.50
2019-05-09T23:28:23.739Z,1.90
2019-05-09T23:30:55.443Z,1.60
2019-05-09T23:33:27.975Z,1.60
2019-05-09T23:35:56.456Z,1.47
2019-05-09T23:38:26.191Z,1.57
2019-05-09T23:40:55.920Z,1.57
2019-05-09T23:43:25.769Z,1.63
2019-05-09T23:45:55.371Z,1.60
2019-05-09T23:48:24.395Z,1.50
2019-05-09T23:50:53.656Z,1.60
2019-05-09T23:53:25.133Z,1.90
2019-05-09T23:56:11.907Z,1.53
2019-05-09T23:58:58.825Z,1.53
